Time;durP1;ratioP1;P1;durP2;ratioP2;P2;SDS_P1;SDS_P2;PMS_P1;PMS_P2;Temp;Humidity;BMP_temperature;BMP_pressure;BME280_temperature;BME280_humidity;BME280_pressure;Samples;Min_cycle;Max_cycle;Signal;HPM_P1;HPM_P2
2021/12/03 00:00:18;;;;;;;8.82;1.85;;;;;;;7.39;63.18;99857.59;4790148;29;122754;-84
2021/12/03 00:02:47;;;;;;;9.00;1.50;;;;;;;7.27;63.33;99848.28;4796719;29;120177;-83
2021/12/03 00:05:13;;;;;;;7.53;1.60;;;;;;;7.26;62.98;99854.94;4792380;29;120722;-86
2021/12/03 00:07:41;;;;;;;5.25;1.25;;;;;;;7.22;62.84;99848.13;4806004;29;119603;-85
2021/12/03 00:10:09;;;;;;;6.82;1.20;;;;;;;7.32;62.85;99866.78;4815637;29;119679;-86
2021/12/03 00:12:35;;;;;;;5.82;1.02;;;;;;;7.31;62.49;99867.25;4775287;29;122868;-85
2021/12/03 00:15:00;;;;;;;6.60;1.13;;;;;;;7.23;62.49;99858.56;4804235;29;120294;-86
2021/12/03 00:17:29;;;;;;;5.40;0.90;;;;;;;7.19;62.63;99865.38;4794846;29;119675;-85
2021/12/03 00:19:54;;;;;;;7.25;1.17;;;;;;;7.19;62.52;99877.03;4794731;29;120567;-84
2021/12/03 00:22:20;;;;;;;3.75;0.95;;;;;;;7.05;62.78;99872.88;4792078;29;120457;-83
2021/12/03 00:24:46;;;;;;;9.70;1.20;;;;;;;7.12;62.65;99882.00;4814455;29;120720;-84
2021/12/03 00:27:11;;;;;;;5.35;1.08;;;;;;;7.09;62.73;99887.13;4791095;29;120288;-85
2021/12/03 00:29:37;;;;;;;5.00;1.25;;;;;;;7.06;63.04;99884.53;4796571;29;121914;-85
2021/12/03 00:32:03;;;;;;;4.18;1.00;;;;;;;7.06;63.59;99879.06;4790518;29;123000;-84
2021/12/03 00:34:28;;;;;;;5.85;1.58;;;;;;;7.05;63.37;99869.38;4780050;29;120200;-85
2021/12/03 00:36:55;;;;;;;6.40;1.10;;;;;;;7.13;63.66;99878.84;4795228;29;121872;-84
2021/12/03 00:39:21;;;;;;;6.90;1.13;;;;;;;7.18;63.15;99888.41;4793807;29;121471;-86
2021/12/03 00:41:52;;;;;;;5.93;1.33;;;;;;;7.15;62.95;99875.66;4776712;29;121821;-84
2021/12/03 00:44:22;;;;;;;8.20;1.20;;;;;;;7.19;62.97;99879.78;4786891;29;120351;-82
2021/12/03 00:46:47;;;;;;;5.85;1.20;;;;;;;7.33;62.77;99903.00;4789425;29;119998;-83
2021/12/03 00:49:13;;;;;;;7.78;1.10;;;;;;;7.29;63.08;99894.97;4779382;29;121714;-85
2021/12/03 00:51:39;;;;;;;5.85;1.88;;;;;;;7.22;62.60;99876.16;4792871;29;123031;-86
2021/12/03 00:54:04;;;;;;;7.82;1.67;;;;;;;7.30;62.22;99899.22;4795528;29;119620;-83
2021/12/03 00:56:30;;;;;;;5.82;1.92;;;;;;;7.22;62.11;99895.25;4790429;29;120253;-83
2021/12/03 00:58:56;;;;;;;7.32;2.22;;;;;;;7.29;62.28;99896.94;4779536;29;122924;-83
2021/12/03 01:01:21;;;;;;;9.10;2.08;;;;;;;7.14;62.41;99885.81;4809071;29;119460;-84
2021/12/03 01:03:47;;;;;;;10.73;3.40;;;;;;;7.19;62.56;99898.09;4775000;29;122207;-86
2021/12/03 01:06:13;;;;;;;16.27;6.75;;;;;;;7.13;62.21;99895.19;4792713;29;119890;-85
2021/12/03 01:08:39;;;;;;;8.00;1.80;;;;;;;7.07;63.01;99895.00;4809734;29;121803;-82
2021/12/03 01:11:07;;;;;;;13.50;3.05;;;;;;;7.13;62.90;99900.66;4793076;29;120266;-83
2021/12/03 01:13:33;;;;;;;13.00;3.38;;;;;;;7.18;63.45;99916.44;4795956;29;121577;-82
2021/12/03 01:15:59;;;;;;;8.45;2.67;;;;;;;7.09;63.64;99905.44;4793719;29;122631;-85
2021/12/03 01:18:25;;;;;;;10.40;3.15;;;;;;;7.19;63.76;99911.75;4777111;29;123083;-84
2021/12/03 01:20:57;;;;;;;12.10;4.60;;;;;;;7.23;63.55;99917.81;4780173;29;119617;-85
2021/12/03 01:23:23;;;;;;;12.80;1.98;;;;;;;7.04;63.35;99886.94;4793400;29;120037;-85
2021/12/03 01:25:49;;;;;;;13.05;3.08;;;;;;;7.26;63.80;99909.50;4777490;29;122689;-86
2021/12/03 01:28:16;;;;;;;12.60;2.80;;;;;;;7.29;63.88;99908.59;4779414;29;120011;-85
2021/12/03 01:30:42;;;;;;;11.48;2.65;;;;;;;7.33;63.65;99909.25;4791853;29;120099;-84
2021/12/03 01:33:08;;;;;;;11.52;2.35;;;;;;;7.39;63.98;99903.97;4779039;29;119590;-85
2021/12/03 01:35:38;;;;;;;12.18;2.08;;;;;;;7.44;63.23;99908.09;4793414;29;122512;-86
2021/12/03 01:38:06;;;;;;;11.05;2.38;;;;;;;7.42;63.68;99922.19;4789777;29;120804;-85
2021/12/03 01:40:34;;;;;;;10.18;2.92;;;;;;;7.49;63.58;99935.56;4794805;29;119539;-84
2021/12/03 01:43:02;;;;;;;11.32;1.88;;;;;;;7.47;63.14;99940.69;4794116;29;121695;-82
2021/12/03 01:45:36;;;;;;;7.93;1.58;;;;;;;7.51;63.42;99930.41;4804735;29;119847;-84
2021/12/03 01:48:02;;;;;;;7.85;1.92;;;;;;;7.51;63.29;99924.19;4788437;29;120277;-85
2021/12/03 01:50:40;;;;;;;10.13;1.95;;;;;;;7.52;63.44;99915.56;4795460;29;121034;-85
2021/12/03 01:53:06;;;;;;;8.85;1.80;;;;;;;7.52;63.01;99914.78;4780471;29;119684;-85
2021/12/03 01:55:34;;;;;;;11.25;2.67;;;;;;;7.23;63.28;99872.22;4779732;29;121989;-85
2021/12/03 01:58:00;;;;;;;8.48;2.22;;;;;;;7.54;63.03;99915.09;4761933;29;121882;-85
2021/12/03 02:00:33;;;;;;;8.63;1.35;;;;;;;7.52;63.27;99907.38;4779484;29;119831;-85
2021/12/03 02:03:04;;;;;;;10.77;1.80;;;;;;;7.44;62.36;99899.91;4806532;29;121521;-85
2021/12/03 02:05:30;;;;;;;12.63;2.03;;;;;;;7.28;62.16;99885.25;4777494;29;122454;-85
2021/12/03 02:07:56;;;;;;;7.25;1.77;;;;;;;7.41;62.47;99909.75;4789309;29;122344;-84
2021/12/03 02:10:23;;;;;;;12.25;2.10;;;;;;;7.30;62.20;99901.19;4793935;29;122443;-81
2021/12/03 02:12:50;;;;;;;9.27;1.88;;;;;;;7.33;61.82;99908.47;4779040;29;119955;-81
2021/12/03 02:15:17;;;;;;;10.85;1.77;;;;;;;7.23;61.65;99894.03;4793034;29;121640;-82
2021/12/03 02:17:43;;;;;;;9.50;1.73;;;;;;;7.20;61.99;99899.63;4777751;29;124910;-84
2021/12/03 02:20:11;;;;;;;9.70;1.92;;;;;;;7.17;62.30;99895.81;4791953;29;119757;-82
2021/12/03 02:22:38;;;;;;;11.00;1.88;;;;;;;7.14;62.37;99896.72;4796359;29;121964;-84
2021/12/03 02:25:06;;;;;;;6.82;1.65;;;;;;;7.10;62.43;99893.38;4792361;29;123321;-85
2021/12/03 02:27:32;;;;;;;7.13;1.75;;;;;;;7.17;62.63;99905.97;4778008;29;119469;-83
2021/12/03 02:29:58;;;;;;;9.80;1.90;;;;;;;7.20;62.36;99911.28;4780300;29;121451;-83
2021/12/03 02:32:23;;;;;;;10.65;1.92;;;;;;;7.12;62.68;99910.03;4775206;29;123261;-83
2021/12/03 02:34:49;;;;;;;9.52;2.17;;;;;;;7.16;63.00;99929.00;4797710;29;120257;-84
2021/12/03 02:37:15;;;;;;;13.38;1.73;;;;;;;7.24;62.83;99954.81;4777717;29;122555;-85
2021/12/03 02:39:41;;;;;;;12.13;2.15;;;;;;;7.23;62.72;99970.41;4792501;29;119793;-85
2021/12/03 02:42:10;;;;;;;9.88;2.20;;;;;;;7.22;62.69;99973.56;4792470;29;119802;-83
2021/12/03 02:44:35;;;;;;;10.98;2.17;;;;;;;7.27;62.94;99976.50;4777352;29;122979;-83
2021/12/03 02:47:04;;;;;;;13.45;2.38;;;;;;;7.25;62.54;99961.78;4790021;29;119525;-84
2021/12/03 02:49:32;;;;;;;11.18;2.03;;;;;;;7.35;63.25;99969.59;4798167;29;121633;-84
2021/12/03 02:51:58;;;;;;;9.43;1.95;;;;;;;7.31;63.27;99938.94;4806947;29;119848;-83
2021/12/03 02:54:24;;;;;;;9.75;1.90;;;;;;;7.32;63.43;99926.81;4808520;29;120495;-84
2021/12/03 02:56:49;;;;;;;6.32;1.40;;;;;;;7.38;63.23;99924.28;4783339;29;121889;-82
2021/12/03 02:59:15;;;;;;;10.48;2.13;;;;;;;7.41;63.59;99930.81;4792224;29;121207;-82
2021/12/03 03:01:40;;;;;;;7.05;1.65;;;;;;;7.39;63.40;99907.47;4800730;29;119835;-82
2021/12/03 03:04:06;;;;;;;8.77;2.00;;;;;;;7.42;63.04;99903.09;4759463;29;123221;-86
2021/12/03 03:06:31;;;;;;;6.38;1.60;;;;;;;7.44;63.75;99910.81;4776419;29;119627;-84
2021/12/03 03:09:08;;;;;;;8.60;1.50;;;;;;;7.34;62.99;99893.66;4793647;29;119716;-83
2021/12/03 03:11:34;;;;;;;9.75;1.38;;;;;;;7.36;63.12;99905.63;4791013;29;122763;-84
2021/12/03 03:14:00;;;;;;;8.80;1.58;;;;;;;7.38;62.74;99905.19;4790277;29;119632;-82
2021/12/03 03:16:26;;;;;;;9.20;1.75;;;;;;;7.33;62.73;99903.81;4783908;29;121611;-84
2021/12/03 03:18:54;;;;;;;10.50;1.60;;;;;;;7.22;62.67;99897.97;4775253;29;120409;-84
2021/12/03 03:21:21;;;;;;;8.38;1.58;;;;;;;7.21;62.53;99899.19;4776717;29;122700;-84
2021/12/03 03:23:47;;;;;;;8.63;1.75;;;;;;;7.21;62.90;99907.34;4810845;29;120641;-85
2021/12/03 03:26:15;;;;;;;8.27;2.03;;;;;;;7.13;63.11;99899.91;4778986;29;119563;-84
2021/12/03 03:28:43;;;;;;;7.75;1.60;;;;;;;7.16;63.49;99897.03;4779700;29;121686;-86
2021/12/03 03:31:08;;;;;;;10.73;1.63;;;;;;;7.18;63.64;99891.88;4794702;29;120421;-87
2021/12/03 03:33:39;;;;;;;9.68;1.50;;;;;;;7.30;63.62;99903.91;4794299;29;122239;-86
2021/12/03 03:36:05;;;;;;;9.38;1.95;;;;;;;7.22;63.75;99889.78;4783357;29;120525;-88
2021/12/03 03:38:31;;;;;;;7.90;1.58;;;;;;;7.36;63.66;99900.19;4798033;29;120743;-86
2021/12/03 03:40:59;;;;;;;7.55;1.50;;;;;;;7.32;63.47;99896.03;4796953;29;121799;-87
2021/12/03 03:43:28;;;;;;;10.90;1.50;;;;;;;7.38;63.76;99897.75;4798573;29;125221;-87
2021/12/03 03:45:54;;;;;;;7.65;1.60;;;;;;;7.26;63.70;99893.13;4797394;29;120188;-87
2021/12/03 03:48:26;;;;;;;8.82;2.13;;;;;;;7.44;63.57;99925.22;4797536;29;120174;-85
2021/12/03 03:50:52;;;;;;;9.95;1.50;;;;;;;7.36;63.13;99932.91;4781870;29;125387;-85
2021/12/03 03:53:18;;;;;;;5.20;1.25;;;;;;;7.42;63.65;99948.72;4795181;29;119941;-84
2021/12/03 03:55:45;;;;;;;10.82;1.92;;;;;;;7.41;64.31;99914.44;4782498;29;122249;-86
2021/12/03 03:58:11;;;;;;;10.23;1.75;;;;;;;7.43;63.87;99877.31;4796207;29;123155;-86
2021/12/03 04:00:41;;;;;;;8.43;1.83;;;;;;;7.53;63.30;99900.69;4782682;29;119731;-86
2021/12/03 04:03:09;;;;;;;7.28;1.60;;;;;;;7.48;63.19;99881.44;4775734;29;124065;-85
2021/12/03 04:05:36;;;;;;;9.20;1.60;;;;;;;7.51;63.23;99894.16;4796195;29;119615;-86
2021/12/03 04:08:02;;;;;;;12.55;1.83;;;;;;;7.51;63.54;99911.31;4811160;29;119894;-87
2021/12/03 04:10:28;;;;;;;13.82;2.03;;;;;;;7.53;63.93;99908.13;4782726;29;123247;-85
2021/12/03 04:12:54;;;;;;;12.23;2.28;;;;;;;7.43;63.96;99890.19;4795472;29;119820;-85
2021/12/03 04:15:29;;;;;;;8.30;1.80;;;;;;;7.45;63.84;99885.81;4795606;29;121994;-85
2021/12/03 04:17:58;;;;;;;9.93;1.65;;;;;;;7.47;63.65;99888.09;4794430;29;122609;-88
2021/12/03 04:20:24;;;;;;;8.88;2.00;;;;;;;7.47;63.29;99890.81;4795925;29;119595;-87
2021/12/03 04:22:50;;;;;;;12.18;1.98;;;;;;;7.57;63.45;99906.00;4796343;29;120011;-85
2021/12/03 04:25:19;;;;;;;13.23;2.05;;;;;;;7.56;63.66;99915.41;4796296;29;120009;-87
2021/12/03 04:27:55;;;;;;;7.55;1.55;;;;;;;7.49;63.95;99888.41;4794381;29;122721;-86
2021/12/03 04:30:27;;;;;;;11.35;1.98;;;;;;;7.49;63.89;99893.88;4793293;29;122580;-83
2021/12/03 04:32:53;;;;;;;11.35;1.75;;;;;;;7.45;64.05;99891.28;4766060;29;120013;-85
2021/12/03 04:35:19;;;;;;;7.63;1.48;;;;;;;7.41;63.71;99876.25;4780063;29;122040;-84
2021/12/03 04:37:45;;;;;;;11.57;1.50;;;;;;;7.51;64.69;99892.19;4766405;29;122949;-83
2021/12/03 04:40:16;;;;;;;11.30;1.70;;;;;;;7.48;64.23;99884.91;4795537;29;121389;-83
2021/12/03 04:42:42;;;;;;;11.63;1.95;;;;;;;7.49;64.05;99877.50;4793612;29;122996;-84
2021/12/03 04:45:11;;;;;;;10.63;1.95;;;;;;;7.56;64.18;99890.84;4801713;29;122827;-84
2021/12/03 04:47:37;;;;;;;8.23;1.52;;;;;;;7.38;63.95;99862.31;4761127;29;122075;-86
2021/12/03 04:50:07;;;;;;;10.30;1.77;;;;;;;7.55;63.73;99889.34;4778825;29;122781;-84
2021/12/03 04:52:33;;;;;;;10.38;1.65;;;;;;;7.55;64.48;99886.59;4795324;29;119904;-82
2021/12/03 04:55:01;;;;;;;10.27;1.67;;;;;;;7.47;64.12;99875.22;4792610;29;121708;-83
2021/12/03 04:57:27;;;;;;;9.38;1.92;;;;;;;7.45;64.40;99864.00;4779246;29;122789;-84
2021/12/03 04:59:52;;;;;;;10.38;1.75;;;;;;;7.48;64.13;99886.88;4779507;29;119781;-84
2021/12/03 05:02:20;;;;;;;13.48;2.80;;;;;;;7.49;63.88;99891.91;4793468;29;122055;-82
2021/12/03 05:04:47;;;;;;;9.48;3.22;;;;;;;7.52;64.59;99910.09;4780222;29;122965;-82
2021/12/03 05:07:28;;;;;;;7.60;1.67;;;;;;;7.61;65.07;99942.16;4782467;29;121066;-84
2021/12/03 05:09:54;;;;;;;9.70;1.90;;;;;;;7.50;64.98;99922.66;4792996;29;120339;-81
2021/12/03 05:12:20;;;;;;;7.47;1.48;;;;;;;7.53;65.18;99935.41;4780637;29;119838;-83
2021/12/03 05:14:45;;;;;;;9.27;2.00;;;;;;;7.57;64.56;99938.78;4780130;29;121696;-83
2021/12/03 05:17:11;;;;;;;10.60;2.03;;;;;;;7.59;64.85;99934.41;4778887;29;122689;-81
2021/12/03 05:19:37;;;;;;;5.28;1.30;;;;;;;7.59;64.77;99907.13;4781105;29;119750;-85
2021/12/03 05:22:02;;;;;;;7.30;1.20;;;;;;;7.58;64.97;99877.53;4793236;29;120236;-84
2021/12/03 05:24:28;;;;;;;6.25;1.15;;;;;;;7.61;64.67;99887.56;4793218;29;120191;-83
2021/12/03 05:26:54;;;;;;;8.48;1.52;;;;;;;7.58;64.83;99897.41;4785934;29;119821;-84
2021/12/03 05:29:20;;;;;;;4.88;1.38;;;;;;;7.66;64.62;99909.56;4763338;29;123781;-83
2021/12/03 05:31:46;;;;;;;8.02;2.55;;;;;;;7.61;64.64;99901.97;4777994;29;119522;-84
2021/12/03 05:34:13;;;;;;;4.70;1.77;;;;;;;7.61;64.23;99899.25;4779652;29;122654;-84
2021/12/03 05:36:39;;;;;;;8.15;2.00;;;;;;;7.66;64.43;99898.66;4793380;29;122900;-84
2021/12/03 05:39:06;;;;;;;7.57;1.55;;;;;;;7.65;64.48;99896.38;4796518;29;119879;-84
2021/12/03 05:41:33;;;;;;;17.95;1.77;;;;;;;7.66;64.54;99886.97;4775862;29;122095;-84
2021/12/03 05:43:59;;;;;;;5.50;1.20;;;;;;;7.72;64.89;99906.25;4792433;29;120164;-85
2021/12/03 05:46:28;;;;;;;4.85;1.08;;;;;;;7.70;64.56;99899.25;4779838;29;120161;-84
2021/12/03 05:48:53;;;;;;;4.78;1.13;;;;;;;7.71;64.57;99897.28;4811502;29;119913;-84
2021/12/03 05:51:19;;;;;;;4.63;1.10;;;;;;;7.73;64.68;99886.69;4776931;29;120952;-85
2021/12/03 05:53:45;;;;;;;3.38;1.00;;;;;;;7.76;64.78;99891.25;4795750;29;120102;-84
2021/12/03 05:56:20;;;;;;;5.53;1.35;;;;;;;7.68;64.60;99879.84;4794884;29;119664;-85
2021/12/03 05:58:46;;;;;;;5.07;1.20;;;;;;;7.60;64.43;99862.25;4779305;29;119662;-84
2021/12/03 06:01:11;;;;;;;11.40;1.30;;;;;;;7.73;64.54;99869.53;4777452;29;120843;-84
2021/12/03 06:03:40;;;;;;;6.60;1.30;;;;;;;7.80;64.78;99880.94;4792737;29;119918;-82
2021/12/03 06:06:11;;;;;;;6.75;1.10;;;;;;;7.70;65.20;99860.28;4778786;29;119510;-83
2021/12/03 06:08:37;;;;;;;6.63;0.95;;;;;;;7.71;64.81;99856.34;4791959;29;122072;-83
2021/12/03 06:11:03;;;;;;;4.53;0.98;;;;;;;7.73;64.63;99853.16;4780622;29;122500;-83
2021/12/03 06:13:28;;;;;;;6.55;0.98;;;;;;;7.75;64.76;99856.22;4812272;29;119631;-84
2021/12/03 06:15:57;;;;;;;5.50;0.85;;;;;;;7.81;64.32;99863.38;4793661;29;119825;-84
2021/12/03 06:18:23;;;;;;;5.97;1.52;;;;;;;7.70;64.49;99850.13;4805088;29;119498;-83
2021/12/03 06:20:48;;;;;;;11.27;1.90;;;;;;;7.73;64.03;99847.72;4779552;29;123079;-83
2021/12/03 06:23:17;;;;;;;6.95;1.70;;;;;;;7.74;63.94;99849.22;4776746;29;122743;-82
2021/12/03 06:25:43;;;;;;;8.43;1.63;;;;;;;7.69;64.17;99845.13;4792434;29;120336;-83
2021/12/03 06:28:09;;;;;;;7.97;1.30;;;;;;;7.68;63.88;99843.59;4792409;29;121778;-81
2021/12/03 06:30:37;;;;;;;4.78;1.30;;;;;;;7.58;64.31;99839.34;4774380;29;122630;-82
2021/12/03 06:33:04;;;;;;;7.97;1.23;;;;;;;7.57;63.79;99843.25;4784275;29;119418;-84
2021/12/03 06:35:30;;;;;;;6.93;1.10;;;;;;;7.47;63.92;99836.25;4776218;29;124131;-84
2021/12/03 06:37:55;;;;;;;8.15;1.70;;;;;;;7.37;64.03;99849.88;4789576;29;120617;-83
2021/12/03 06:40:24;;;;;;;6.78;1.63;;;;;;;7.38;64.05;99861.53;4794829;29;119758;-84
2021/12/03 06:42:50;;;;;;;11.05;1.83;;;;;;;7.30;64.48;99849.34;4778845;29;120362;-84
2021/12/03 06:45:17;;;;;;;7.90;1.60;;;;;;;7.33;64.83;99845.72;4778816;29;120487;-84
2021/12/03 06:47:49;;;;;;;9.17;1.57;;;;;;;7.28;64.59;99844.34;4811458;29;120651;-84
2021/12/03 06:50:18;;;;;;;14.57;3.42;;;;;;;7.25;64.43;99847.97;4808491;29;122900;-83
2021/12/03 06:52:49;;;;;;;12.43;2.45;;;;;;;7.30;64.59;99857.53;4776696;29;119708;-82
2021/12/03 06:55:15;;;;;;;10.15;1.80;;;;;;;7.24;63.95;99849.19;4782750;29;122245;-85
2021/12/03 06:57:44;;;;;;;9.45;2.20;;;;;;;7.22;64.33;99850.84;4791253;29;119858;-83
2021/12/03 07:00:12;;;;;;;9.07;1.63;;;;;;;7.20;64.63;99856.75;4805880;29;119496;-83
2021/12/03 07:02:37;;;;;;;9.35;2.30;;;;;;;7.31;65.11;99883.59;4793822;29;120504;-83
2021/12/03 07:05:04;;;;;;;11.35;2.15;;;;;;;7.31;65.02;99878.91;4794822;29;120444;-83
2021/12/03 07:07:31;;;;;;;11.60;2.17;;;;;;;7.32;65.60;99885.13;4782714;29;121986;-84
2021/12/03 07:09:56;;;;;;;12.52;2.03;;;;;;;7.48;65.34;99895.81;4809603;29;123173;-83
2021/12/03 07:12:22;;;;;;;10.63;1.98;;;;;;;7.39;65.78;99868.50;4779151;29;119682;-84
2021/12/03 07:14:47;;;;;;;12.52;2.20;;;;;;;7.37;65.17;99860.78;4787043;29;122775;-83
2021/12/03 07:17:13;;;;;;;14.18;2.70;;;;;;;7.38;65.44;99872.44;4800167;29;120240;-83
2021/12/03 07:19:39;;;;;;;7.00;1.60;;;;;;;7.41;64.90;99865.34;4810474;29;119401;-82
2021/12/03 07:22:04;;;;;;;11.27;2.10;;;;;;;7.46;64.87;99868.22;4797354;29;121654;-83
2021/12/03 07:24:30;;;;;;;11.15;2.08;;;;;;;7.51;65.48;99859.47;4764123;29;119732;-84
2021/12/03 07:27:02;;;;;;;11.60;2.33;;;;;;;7.56;65.70;99860.84;4795854;29;119466;-84
2021/12/03 07:29:28;;;;;;;13.25;1.95;;;;;;;7.58;65.11;99850.25;4775886;29;122612;-83
2021/12/03 07:31:57;;;;;;;13.20;2.05;;;;;;;7.57;64.59;99852.22;4779251;29;119997;-83
2021/12/03 07:34:22;;;;;;;8.65;1.75;;;;;;;7.47;64.68;99836.25;4768884;29;122456;-83
2021/12/03 07:36:48;;;;;;;10.02;1.63;;;;;;;7.47;65.00;99837.00;4797877;29;119910;-83
2021/12/03 07:39:13;;;;;;;11.02;2.10;;;;;;;7.41;65.03;99836.09;4780252;29;119951;-83
2021/12/03 07:41:40;;;;;;;10.98;1.77;;;;;;;7.48;64.60;99851.41;4812567;29;120237;-84
2021/12/03 07:44:07;;;;;;;7.03;1.50;;;;;;;7.43;65.08;99844.56;4779202;29;119447;-83
2021/12/03 07:46:34;;;;;;;9.45;2.08;;;;;;;7.45;64.79;99850.34;4780835;29;122112;-84
2021/12/03 07:49:02;;;;;;;13.68;2.20;;;;;;;7.46;64.53;99848.38;4764252;29;122782;-84
2021/12/03 07:51:28;;;;;;;12.70;2.20;;;;;;;7.43;64.20;99841.84;4778527;29;119449;-82
2021/12/03 07:53:54;;;;;;;13.52;2.97;;;;;;;7.47;64.40;99838.97;4780083;29;123124;-83
2021/12/03 07:56:19;;;;;;;10.35;2.55;;;;;;;7.42;64.52;99840.34;4795073;29;122754;-84
2021/12/03 07:58:48;;;;;;;12.63;1.75;;;;;;;7.51;64.84;99855.97;4801522;29;119984;-83
2021/12/03 08:01:14;;;;;;;9.75;2.03;;;;;;;7.44;64.58;99848.81;4792978;29;120482;-83
2021/12/03 08:03:39;;;;;;;11.00;2.60;;;;;;;7.50;64.30;99852.47;4765177;29;119620;-83
2021/12/03 08:06:09;;;;;;;7.95;1.80;;;;;;;7.54;64.27;99855.81;4778709;29;122138;-81
2021/12/03 08:08:38;;;;;;;9.63;2.10;;;;;;;7.51;65.14;99847.78;4796878;29;123208;-82
2021/12/03 08:11:04;;;;;;;13.50;2.50;;;;;;;7.57;64.73;99845.97;4777722;29;119595;-81
2021/12/03 08:13:34;;;;;;;10.15;1.77;;;;;;;7.58;65.13;99840.09;4779888;29;121746;-82
2021/12/03 08:16:01;;;;;;;11.27;2.00;;;;;;;7.66;65.04;99854.22;4812349;29;122890;-84
2021/12/03 08:18:26;;;;;;;12.57;2.05;;;;;;;7.61;65.03;99841.16;4792627;29;119460;-84
2021/12/03 08:20:53;;;;;;;9.98;2.17;;;;;;;7.74;65.64;99850.00;4784669;29;122169;-80
2021/12/03 08:23:19;;;;;;;19.10;2.85;;;;;;;7.70;65.19;99838.44;4780872;29;120506;-85
2021/12/03 08:25:44;;;;;;;14.70;2.53;;;;;;;7.75;65.11;99848.00;4809380;29;119535;-84
2021/12/03 08:28:10;;;;;;;11.15;2.33;;;;;;;7.75;64.92;99848.78;4781205;29;119886;-84
2021/12/03 08:30:36;;;;;;;9.75;2.50;;;;;;;7.81;65.36;99857.16;4778853;29;119471;-83
2021/12/03 08:33:02;;;;;;;14.45;2.70;;;;;;;7.85;65.47;99853.06;4795636;29;121718;-83
2021/12/03 08:35:27;;;;;;;14.35;2.53;;;;;;;7.93;64.95;99856.25;4780992;29;123308;-84
2021/12/03 08:37:53;;;;;;;10.02;2.10;;;;;;;7.94;64.68;99850.34;4794083;29;119713;-85
2021/12/03 08:40:21;;;;;;;9.18;1.85;;;;;;;7.91;65.52;99845.78;4780395;29;121750;-83
2021/12/03 08:42:48;;;;;;;14.95;2.20;;;;;;;7.96;65.20;99850.66;4797333;29;122545;-83
2021/12/03 08:45:17;;;;;;;9.13;2.35;;;;;;;7.98;65.02;99844.75;4793984;29;121611;-84
2021/12/03 08:47:46;;;;;;;9.90;2.05;;;;;;;8.07;65.19;99847.50;4797163;29;119949;-84
2021/12/03 08:50:18;;;;;;;12.73;2.13;;;;;;;8.14;65.18;99855.41;4797196;29;120135;-83
2021/12/03 08:53:09;;;;;;;14.27;1.85;;;;;;;8.15;65.54;99831.56;4812714;29;121719;-85
2021/12/03 08:55:39;;;;;;;9.75;2.03;;;;;;;8.17;65.06;99837.34;4782588;29;122946;-84
2021/12/03 08:58:05;;;;;;;12.70;2.22;;;;;;;8.27;65.13;99841.59;4810916;29;121226;-84
2021/12/03 09:00:33;;;;;;;11.13;2.53;;;;;;;8.29;65.17;99842.69;4793107;29;120600;-83
2021/12/03 09:02:59;;;;;;;11.15;2.50;;;;;;;8.31;65.43;99831.28;4792840;29;120344;-85
2021/12/03 09:05:31;;;;;;;7.80;1.80;;;;;;;8.38;65.63;99831.00;4811358;29;119513;-83
2021/12/03 09:07:59;;;;;;;8.00;1.58;;;;;;;8.38;65.27;99820.06;4778163;29;123200;-83
2021/12/03 09:10:25;;;;;;;9.75;1.52;;;;;;;8.46;65.34;99829.47;4791679;29;121902;-83
2021/12/03 09:12:52;;;;;;;7.95;1.55;;;;;;;8.60;65.42;99844.53;4792021;29;123948;-84
2021/12/03 09:15:24;;;;;;;6.32;1.67;;;;;;;8.66;65.63;99847.41;4761721;29;123313;-82
2021/12/03 09:18:11;;;;;;;9.50;1.40;;;;;;;8.59;65.07;99826.59;4776726;29;119996;-83
2021/12/03 09:20:52;;;;;;;7.57;1.70;;;;;;;8.68;65.02;99842.22;4791708;29;122563;-82
2021/12/03 09:23:30;;;;;;;5.47;1.40;;;;;;;8.62;64.73;99833.88;4807151;29;123428;-82
2021/12/03 09:26:08;;;;;;;6.95;1.88;;;;;;;8.66;65.24;99831.75;4794468;29;120662;-83
2021/12/03 09:28:38;;;;;;;6.07;1.38;;;;;;;8.73;65.20;99836.13;4791270;29;123670;-82
2021/12/03 09:31:04;;;;;;;5.25;1.27;;;;;;;8.79;65.52;99839.81;4792551;29;119720;-83
2021/12/03 09:33:32;;;;;;;7.72;1.38;;;;;;;8.80;65.99;99836.59;4806422;29;122657;-84
2021/12/03 09:36:01;;;;;;;3.35;1.10;;;;;;;8.87;68.16;99841.75;4791668;29;123480;-80
2021/12/03 09:38:32;;;;;;;6.72;1.38;;;;;;;8.94;69.07;99821.53;4791174;29;119830;-80
2021/12/03 09:41:06;;;;;;;4.45;1.00;;;;;;;8.89;66.35;99813.94;4774033;29;121750;-80
2021/12/03 09:43:34;;;;;;;5.45;1.60;;;;;;;8.94;65.57;99813.31;4807809;29;120579;-81
2021/12/03 09:46:08;;;;;;;5.55;2.08;;;;;;;8.94;65.38;99821.53;4790851;29;120156;-82
2021/12/03 09:49:20;;;;;;;6.60;2.10;;;;;;;8.96;64.94;99829.25;4780670;29;122627;-82
2021/12/03 09:51:29;;;;;;;3.30;1.40;;;;;;;8.88;64.34;99807.72;4794367;29;119812;-82
2021/12/03 09:54:23;;;;;;;3.90;1.40;;;;;;;8.80;64.63;99801.06;4789828;29;125119;-81
2021/12/03 09:56:44;;;;;;;4.80;1.50;;;;;;;8.85;64.40;99807.88;4790449;29;120012;-81
2021/12/03 10:10:36;;;;;;;4.10;0.98;;;;;;;8.71;64.95;99789.38;4807099;29;120770;-80
2021/12/03 10:15:31;;;;;;;5.30;1.23;;;;;;;8.60;64.43;99776.94;4791617;29;121752;-79
2021/12/03 10:18:05;;;;;;;5.60;1.52;;;;;;;8.59;64.98;99788.34;4771532;29;121655;-82
2021/12/03 10:26:30;;;;;;;6.03;1.45;;;;;;;8.37;64.92;99763.91;4805285;29;119919;-84
2021/12/03 10:35:02;;;;;;;9.00;1.73;;;;;;;8.25;65.42;99738.22;4788285;29;122702;-83
2021/12/03 10:40:26;;;;;;;8.98;2.67;;;;;;;8.29;66.42;99727.16;4790013;29;123196;-83
2021/12/03 10:43:42;;;;;;;7.03;2.60;;;;;;;8.34;66.11;99736.75;4774859;29;120421;-83
2021/12/03 10:57:02;;;;;;;5.00;2.33;;;;;;;8.46;66.87;99722.13;4790026;29;123060;-83
2021/12/03 10:59:44;;;;;;;8.27;2.33;;;;;;;8.49;66.63;99724.72;4807834;29;119470;-82
2021/12/03 11:28:00;;;;;;;;;;;;;;;8.55;66.04;99687.38;4776392;29;124357;-82
2021/12/03 13:26:59;;;;;;;23.42;11.77;;;;;;;8.44;65.40;99495.03;4790044;29;122869;-80
2021/12/03 14:08:34;;;;;;;45.83;24.63;;;;;;;8.09;68.96;99440.13;4790053;29;127252;-81
2021/12/03 14:46:11;;;;;;;35.47;21.35;;;;;;;7.73;69.56;99406.28;4772537;29;120156;-80
2021/12/03 14:48:48;;;;;;;29.58;18.65;;;;;;;7.66;68.85;99409.34;4789501;29;119586;-83
2021/12/03 14:56:47;;;;;;;47.92;26.90;;;;;;;7.36;69.44;99392.78;4807935;29;119713;-81
2021/12/03 15:00:02;;;;;;;34.22;22.02;;;;;;;7.40;68.60;99395.34;4802948;29;119823;-81
2021/12/03 15:07:33;;;;;;;33.97;22.33;;;;;;;7.33;69.24;99392.91;4800256;29;122428;-83
2021/12/03 15:10:03;;;;;;;40.45;25.58;;;;;;;7.26;69.46;99374.91;4789401;29;120578;-82
2021/12/03 15:13:02;;;;;;;38.35;24.25;;;;;;;7.21;69.54;99369.31;4788729;29;123004;-82
2021/12/03 15:21:25;;;;;;;;;;;;;;;7.05;68.02;99368.44;4775538;29;122196;-81
2021/12/03 15:26:57;;;;;;;28.20;20.77;;;;;;;6.89;69.26;99341.53;4760529;29;120740;-82
2021/12/03 15:32:26;;;;;;;31.45;21.30;;;;;;;6.92;69.40;99348.78;4774038;29;119991;-83
2021/12/03 16:04:31;;;;;;;20.80;16.58;;;;;;;6.46;69.98;99272.56;4791059;29;122111;-84
2021/12/03 16:25:54;;;;;;;;;;;;;;;6.43;68.99;99259.88;4793153;29;120606;-79
2021/12/03 16:43:33;;;;;;;17.65;13.57;;;;;;;6.46;69.12;99239.88;4807516;29;119972;-82
2021/12/03 16:45:29;;;;;;;18.00;14.40;;;;;;;6.79;71.66;99217.38;4790872;29;120649;-82
2021/12/03 16:50:54;;;;;;;40.08;27.23;;;;;;;6.96;73.32;99195.97;4790339;29;123200;-81
2021/12/03 16:53:23;;;;;;;20.30;18.10;;;;;;;7.11;73.36;99183.19;4791321;29;119670;-83
2021/12/03 16:58:33;;;;;;;29.02;23.42;;;;;;;7.42;74.11;99195.75;4803231;29;122653;-82
2021/12/03 17:12:10;;;;;;;34.85;25.40;;;;;;;7.76;73.39;99176.09;4804312;29;119968;-81
2021/12/03 17:22:53;;;;;;;33.47;25.95;;;;;;;8.05;73.73;99163.75;4789189;29;119589;-80
2021/12/03 17:49:14;;;;;;;26.38;21.27;;;;;;;8.51;72.88;99162.06;4788681;29;121953;-80
2021/12/03 17:56:51;;;;;;;30.55;23.05;;;;;;;8.65;73.53;99168.75;4804621;29;119826;-80
2021/12/03 17:59:43;;;;;;;31.88;21.65;;;;;;;8.66;72.62;99162.03;4790413;29;119461;-79
2021/12/03 18:02:35;;;;;;;45.20;29.73;;;;;;;8.70;73.88;99156.38;4788984;29;122852;-81
2021/12/03 18:05:12;;;;;;;36.05;24.25;;;;;;;8.80;73.81;99171.47;4789384;29;120565;-79
2021/12/03 18:16:12;;;;;;;;;;;;;;;9.10;72.76;99183.09;4809122;29;119829;-77
2021/12/03 18:48:39;;;;;;;24.42;16.05;;;;;;;9.03;72.41;99129.53;4845885;28;119377;-94